M I D A S
Marine Information and Data Acquisition System
Tripno 1356 of the Zeeleeuw from 2007-09-25 06:39:14 to 2007-09-25 15:25:09
Back to CruiseResearch ActivitiesStationsMapUnderway DataData graphs

EquipmentUnitsComment
TimeDGPSUTC
LatitudeDGPSDM.mWGS84
LongitudeDGPSDM.mWGS84
HeadingGyrodeg 
SOGDGPSknotsSpeed over ground
COGDGPSdegCourse over ground
DepthEcho soundermeters200 kHz
Missing or incorrect values are displayed as -999
Navigation data collected by the RV Zeeleeuw from 2007-09-25 06:26:18 to 2007-09-25 15:38:00
                                                                                    Next 1000 lines
Time Latitude Longitude Heading SOG COG Depth
2007-09-25 06:26:28 51°13.603 2°56.098 117.1 0.5 298 7.1
2007-09-25 06:26:33 51°13.603 2°56.097 117.1 0.8 304 7.1
2007-09-25 06:26:37 51°13.604 2°56.095 117.1 1.1 299 5.4
2007-09-25 06:26:42 51°13.605 2°56.093 117.1 1.3 301 7.3
2007-09-25 06:26:47 51°13.606 2°56.09 117.1 1.7 299 7.5
2007-09-25 06:26:52 51°13.607 2°56.086 117.2 1.9 300 -999
2007-09-25 06:26:57 51°13.609 2°56.082 117.2 2.1 298 -999
2007-09-25 06:27:03 51°13.611 2°56.076 117.2 2.3 299 -999
2007-09-25 06:27:09 51°13.613 2°56.07 117.3 2.6 299 -999
2007-09-25 06:27:14 51°13.614 2°56.066 117.3 2.6 297 -999
2007-09-25 06:27:19 51°13.616 2°56.06 117 2.7 298 -999
2007-09-25 06:27:24 51°13.618 2°56.054 116.8 2.9 297 -999
2007-09-25 06:27:29 51°13.62 2°56.048 116.8 3.2 297 -999
2007-09-25 06:27:34 51°13.62 2°56.042 117.2 3.4 297 -999
2007-09-25 06:27:39 51°13.622 2°56.035 117.8 3.6 297 -999
2007-09-25 06:27:44 51°13.624 2°56.028 118.6 3.8 298 -999
2007-09-25 06:27:49 51°13.626 2°56.02 119.6 4 298 -999
2007-09-25 06:27:54 51°13.63 2°56.012 120.3 4.2 299 -999
2007-09-25 06:27:59 51°13.633 2°56.003 120.9 4.4 300 -999
2007-09-25 06:28:04 51°13.636 2°55.994 121.6 4.6 301 -999
2007-09-25 06:28:09 51°13.64 2°55.985 122.2 4.8 301 -999
2007-09-25 06:28:14 51°13.644 2°55.976 122.8 5 302 -999
2007-09-25 06:28:19 51°13.647 2°55.966 123.2 5.2 302 -999
2007-09-25 06:28:24 51°13.652 2°55.956 124 5.3 303 -999
2007-09-25 06:28:29 51°13.656 2°55.946 124.4 5.5 303 -999
2007-09-25 06:28:34 51°13.661 2°55.936 124.8 5.6 304 -999
2007-09-25 06:28:39 51°13.665 2°55.926 125.1 5.5 304 -999
2007-09-25 06:28:44 51°13.668 2°55.916 125.3 5.3 304 -999
2007-09-25 06:28:49 51°13.672 2°55.907 125.1 5.1 304 -999
2007-09-25 06:28:54 51°13.676 2°55.897 124.3 5 303 -999
2007-09-25 06:28:59 51°13.68 2°55.888 123.6 4.9 302 -999
2007-09-25 06:29:04 51°13.683 2°55.879 122.3 4.8 302 -999
2007-09-25 06:29:09 51°13.687 2°55.87 120.9 4.7 301 -999
2007-09-25 06:29:14 51°13.69 2°55.862 119.5 4.6 300 -999
2007-09-25 06:29:19 51°13.693 2°55.853 118.3 4.5 299 -999
2007-09-25 06:29:24 51°13.696 2°55.844 116.2 4.4 297 -999
2007-09-25 06:29:29 51°13.699 2°55.835 114.2 4.4 296 -999
2007-09-25 06:29:34 51°13.701 2°55.827 112.2 4.3 294 -999
2007-09-25 06:29:39 51°13.703 2°55.818 110.4 4.2 292 -999
2007-09-25 06:29:44 51°13.705 2°55.809 107.8 4.1 290 -999
2007-09-25 06:29:49 51°13.707 2°55.801 105.5 4 287 -999
2007-09-25 06:29:54 51°13.708 2°55.793 103.5 3.9 285 -999
2007-09-25 06:29:59 51°13.71 2°55.785 101.7 3.8 283 -999
2007-09-25 06:30:04 51°13.71 2°55.777 99 3.7 281 -999
2007-09-25 06:30:09 51°13.711 2°55.769 96.7 3.6 278 -999
2007-09-25 06:30:14 51°13.711 2°55.761 95 3.6 276 -999
2007-09-25 06:30:19 51°13.712 2°55.753 92.8 3.5 275 -999
2007-09-25 06:30:24 51°13.712 2°55.746 90.7 3.4 273 13.4
2007-09-25 06:30:29 51°13.713 2°55.739 88.8 3.2 272 -999
2007-09-25 06:30:34 51°13.713 2°55.732 87.4 3.1 271 -999
2007-09-25 06:30:39 51°13.713 2°55.725 85.4 2.9 269 -999
2007-09-25 06:30:44 51°13.713 2°55.72 84 2.6 268 -999
2007-09-25 06:30:49 51°13.713 2°55.715 82 2.2 267 11.7
2007-09-25 06:30:53 51°13.713 2°55.712 80.2 1.8 267 11.8
2007-09-25 06:30:58 51°13.713 2°55.708 78.3 1.5 268 11.6
2007-09-25 06:31:03 51°13.713 2°55.706 75.6 1.1 271 11.5
2007-09-25 06:31:08 51°13.713 2°55.704 72.8 0.8 277 11.6
2007-09-25 06:31:13 51°13.713 2°55.703 69.7 0.5 282 11.6
2007-09-25 06:31:17 51°13.713 2°55.702 66.3 0.4 305 11.5
2007-09-25 06:31:22 51°13.714 2°55.702 63 0.4 327 11.4
2007-09-25 06:31:27 51°13.715 2°55.701 59.5 0.4 351 11.4
2007-09-25 06:31:32 51°13.715 2°55.702 56 0.5 5 11.4
2007-09-25 06:31:37 51°13.716 2°55.702 52.2 0.6 12 11.3
2007-09-25 06:31:41 51°13.717 2°55.702 48.4 0.7 15 11.3
2007-09-25 06:31:46 51°13.718 2°55.703 44.3 0.9 18 11.3
2007-09-25 06:31:51 51°13.719 2°55.704 40.2 1.1 18 11.4
2007-09-25 06:31:56 51°13.721 2°55.704 35.8 1.3 16 11.5
2007-09-25 06:32:00 51°13.722 2°55.705 30.9 1.5 13 11.4
2007-09-25 06:32:05 51°13.725 2°55.706 25.4 1.7 10 11.3
2007-09-25 06:32:10 51°13.728 2°55.706 19.4 2.1 4 11.3
2007-09-25 06:32:16 51°13.733 2°55.706 12.8 2.8 359 11.2
2007-09-25 06:32:20 51°13.736 2°55.705 4.9 3.5 351 11
2007-09-25 06:32:25 51°13.742 2°55.703 356.6 4.1 347 10.8
2007-09-25 06:32:30 51°13.748 2°55.7 349.6 4.6 342 11
2007-09-25 06:32:35 51°13.754 2°55.696 344.8 4.7 340 10.8
2007-09-25 06:32:41 51°13.762 2°55.691 342.5 5.2 337 10.8
2007-09-25 06:32:45 51°13.767 2°55.687 340.3 5.5 336 10.6
2007-09-25 06:32:50 51°13.775 2°55.682 338.8 5.7 335 10.5
2007-09-25 06:32:55 51°13.782 2°55.676 337.9 6 334 10.5
2007-09-25 06:33:00 51°13.79 2°55.67 337.6 6.2 335 10.4
2007-09-25 06:33:05 51°13.797 2°55.665 337.6 6.4 335 10.4
2007-09-25 06:33:10 51°13.806 2°55.658 337.6 6.5 335 10.5
2007-09-25 06:33:15 51°13.814 2°55.652 337.6 6.7 335 10.8
2007-09-25 06:33:20 51°13.822 2°55.646 337.5 6.8 335 10.6
2007-09-25 06:33:25 51°13.831 2°55.639 337.2 6.9 334 10.6
2007-09-25 06:33:30 51°13.839 2°55.632 336.7 7 334 10.5
2007-09-25 06:33:35 51°13.848 2°55.626 336.7 7.1 335 10.3
2007-09-25 06:33:40 51°13.857 2°55.619 337.2 7.2 334 10.4
2007-09-25 06:33:45 51°13.866 2°55.612 337.2 7.3 335 10.5
2007-09-25 06:33:50 51°13.876 2°55.605 337.1 7.4 334 10.4
2007-09-25 06:33:55 51°13.885 2°55.598 336.9 7.4 334 10.6
2007-09-25 06:34:00 51°13.894 2°55.59 336.7 7.5 334 10.7
2007-09-25 06:34:05 51°13.904 2°55.583 336.4 7.5 334 10.7
2007-09-25 06:34:10 51°13.913 2°55.576 336.4 7.6 334 10.8
2007-09-25 06:34:16 51°13.924 2°55.567 336.6 7.6 334 10.8
2007-09-25 06:34:20 51°13.932 2°55.561 337 7.6 334 10.7
2007-09-25 06:34:25 51°13.941 2°55.554 337.3 7.6 334 10.8
2007-09-25 06:34:30 51°13.951 2°55.546 337.5 7.7 335 10.4
2007-09-25 06:34:35 51°13.961 2°55.539 337.7 7.7 335 10.4
2007-09-25 06:34:41 51°13.972 2°55.531 338.2 7.7 335 10.4
2007-09-25 06:34:45 51°13.98 2°55.525 338.2 7.7 335 10.4
2007-09-25 06:34:50 51°13.99 2°55.518 338.1 7.7 336 10.4
2007-09-25 06:34:56 51°14.001 2°55.51 338.7 7.7 336 10.4
2007-09-25 06:35:00 51°14.009 2°55.504 339.5 7.7 336 10.3
2007-09-25 06:35:05 51°14.019 2°55.497 339.4 7.7 335 10.1
2007-09-25 06:35:10 51°14.029 2°55.49 338.9 7.7 336 10
2007-09-25 06:35:15 51°14.038 2°55.483 338.9 7.7 335 9.8
2007-09-25 06:35:20 51°14.048 2°55.476 338.9 7.7 335 10.4
2007-09-25 06:35:25 51°14.058 2°55.468 338.3 7.7 335 10.4
2007-09-25 06:35:30 51°14.067 2°55.461 338 7.7 335 10.4
2007-09-25 06:35:35 51°14.077 2°55.454 338 7.7 334 10.1
2007-09-25 06:35:40 51°14.087 2°55.446 337.5 7.7 334 9.8
2007-09-25 06:35:45 51°14.096 2°55.439 337 7.7 333 9.9
2007-09-25 06:35:50 51°14.106 2°55.431 336.6 7.7 333 10.7
2007-09-25 06:35:56 51°14.117 2°55.422 336.9 7.6 334 -999
2007-09-25 06:36:01 51°14.126 2°55.414 337.3 7.6 334 -999
2007-09-25 06:36:06 51°14.136 2°55.407 337.1 7.6 333 10.6
2007-09-25 06:36:11 51°14.145 2°55.399 336.3 7.6 332 -999
2007-09-25 06:36:17 51°14.156 2°55.389 335.2 7.5 331 -999
2007-09-25 06:36:22 51°14.165 2°55.381 334.4 7.4 330 -999
2007-09-25 06:36:27 51°14.174 2°55.373 333.4 7.3 329 10.5
2007-09-25 06:36:33 51°14.184 2°55.362 332.2 7.2 327 -999
2007-09-25 06:36:38 51°14.192 2°55.353 330.6 7.2 326 10.5
2007-09-25 06:36:43 51°14.2 2°55.344 328.7 7.1 323 10.8
2007-09-25 06:36:49 51°14.21 2°55.333 326.9 7 322 10.6
2007-09-25 06:36:53 51°14.215 2°55.325 325.4 6.9 320 11.2
2007-09-25 06:36:58 51°14.223 2°55.315 324.3 6.8 319 10.4
2007-09-25 06:37:03 51°14.229 2°55.305 323 6.8 318 10.5
2007-09-25 06:37:08 51°14.236 2°55.295 321.8 6.8 318 10.3
2007-09-25 06:37:13 51°14.244 2°55.284 321 6.9 317 10.6
2007-09-25 06:37:17 51°14.249 2°55.276 320.3 7.1 317 10.6
2007-09-25 06:37:22 51°14.257 2°55.265 319.6 7.3 315 10.1
2007-09-25 06:37:27 51°14.264 2°55.253 318.6 7.5 315 9.8
2007-09-25 06:37:31 51°14.27 2°55.244 318 7.6 314 10
2007-09-25 06:37:36 51°14.277 2°55.231 317.3 7.7 313 10
2007-09-25 06:37:41 51°14.285 2°55.218 316.7 7.8 313 10.1
2007-09-25 06:37:46 51°14.292 2°55.205 316.1 7.9 313 10.3
2007-09-25 06:37:50 51°14.298 2°55.195 316 8 312 10.4
2007-09-25 06:37:55 51°14.306 2°55.182 315.5 8.1 312 10.3
2007-09-25 06:38:00 51°14.313 2°55.168 315.1 8.2 312 10.4
2007-09-25 06:38:05 51°14.321 2°55.155 314.7 8.2 312 10.2
2007-09-25 06:38:10 51°14.328 2°55.141 314.4 8.2 311 10.3
2007-09-25 06:38:15 51°14.336 2°55.127 314.1 8.2 311 10.3
2007-09-25 06:38:20 51°14.343 2°55.113 313.5 8.3 310 10.3
2007-09-25 06:38:26 51°14.352 2°55.095 313.2 8.6 310 10.3
2007-09-25 06:38:30 51°14.359 2°55.083 312.9 8.9 310 10.5
2007-09-25 06:38:36 51°14.368 2°55.065 312.8 9.1 309 10.5
2007-09-25 06:38:40 51°14.375 2°55.052 312.7 9.4 309 10.3
2007-09-25 06:38:45 51°14.383 2°55.035 312.7 9.7 308 10.5
2007-09-25 06:38:50 51°14.392 2°55.018 312.7 10 309 10.4
2007-09-25 06:38:55 51°14.4 2°55 313.2 10.3 308 10.4
2007-09-25 06:39:00 51°14.41 2°54.982 313.5 10.5 310 10.5
2007-09-25 06:39:05 51°14.419 2°54.965 315.4 10.5 312 10.3
2007-09-25 06:39:10 51°14.43 2°54.948 317.7 10.7 314 10.4
2007-09-25 06:39:16 51°14.442 2°54.926 319.5 11.2 313 10.4
2007-09-25 06:39:20 51°14.451 2°54.912 319.9 11.4 314 10.2
2007-09-25 06:39:25 51°14.462 2°54.893 320.5 11.6 314 10.1
2007-09-25 06:39:30 51°14.474 2°54.876 322.7 11.7 318 9.9
2007-09-25 06:39:35 51°14.487 2°54.86 326.1 11.7 322 9.6
2007-09-25 06:39:41 51°14.504 2°54.843 331 11.8 327 9.5
2007-09-25 06:39:45 51°14.515 2°54.833 336 11.7 331 9.4
2007-09-25 06:39:51 51°14.533 2°54.819 338.2 11.8 333 9.3
2007-09-25 06:39:56 51°14.547 2°54.807 341.4 11.8 335 9.2
2007-09-25 06:40:01 51°14.563 2°54.798 344 11.8 337 9.2
2007-09-25 06:40:06 51°14.578 2°54.789 346.6 11.8 340 9.2
2007-09-25 06:40:11 51°14.593 2°54.78 348.3 11.8 340 9
2007-09-25 06:40:16 51°14.609 2°54.771 349.3 11.8 341 8.8
2007-09-25 06:40:21 51°14.625 2°54.762 349.5 11.9 341 8.9
2007-09-25 06:40:26 51°14.64 2°54.754 349.7 11.9 340 8.9
2007-09-25 06:40:31 51°14.656 2°54.745 349.5 11.9 340 9
2007-09-25 06:40:36 51°14.671 2°54.735 348.7 11.9 340 9
2007-09-25 06:40:41 51°14.687 2°54.726 348.6 12 339 9.1
2007-09-25 06:40:46 51°14.702 2°54.716 347.3 12 337 9.3
2007-09-25 06:40:51 51°14.718 2°54.706 347 12 338 9.2
2007-09-25 06:40:56 51°14.733 2°54.696 346.6 12 337 9.2
2007-09-25 06:41:01 51°14.748 2°54.685 346.2 12.1 337 9.1
2007-09-25 06:41:06 51°14.764 2°54.675 345.7 12 338 9.4
2007-09-25 06:41:10 51°14.776 2°54.667 345.4 12 337 9.3
2007-09-25 06:41:16 51°14.794 2°54.654 345.4 12 338 9
2007-09-25 06:41:21 51°14.81 2°54.645 345.9 12 338 9.3
2007-09-25 06:41:26 51°14.825 2°54.635 346.7 11.9 339 8.9
2007-09-25 06:41:30 51°14.837 2°54.628 347.5 12 339 9.1
2007-09-25 06:41:36 51°14.856 2°54.617 347.7 11.9 340 9.2
2007-09-25 06:41:41 51°14.871 2°54.608 348.2 11.8 340 8.9
2007-09-25 06:41:46 51°14.887 2°54.599 348.9 11.9 341 9.1
2007-09-25 06:41:51 51°14.903 2°54.59 348.9 12 340 9
2007-09-25 06:41:56 51°14.918 2°54.581 348.1 11.9 340 9.1
2007-09-25 06:42:01 51°14.933 2°54.572 348 11.9 339 9
2007-09-25 06:42:06 51°14.948 2°54.563 348.1 11.6 339 8.8
2007-09-25 06:42:10 51°14.961 2°54.555 347 11.7 337 8.6
2007-09-25 06:42:16 51°14.979 2°54.543 346.6 11.7 338 8.9
2007-09-25 06:42:21 51°14.993 2°54.533 345.8 11.6 336 8.3
2007-09-25 06:42:26 51°15.008 2°54.523 345.4 11.6 337 8.4
2007-09-25 06:42:31 51°15.022 2°54.512 344.7 11.6 335 8
2007-09-25 06:42:36 51°15.037 2°54.502 344.7 11.6 336 8.3
2007-09-25 06:42:41 51°15.052 2°54.491 344.7 11.7 335 8.3
2007-09-25 06:42:46 51°15.066 2°54.481 344 11.6 336 7.8
2007-09-25 06:42:51 51°15.081 2°54.471 343.3 11.5 337 7.9
2007-09-25 06:42:56 51°15.096 2°54.46 345 11.6 336 7.8
2007-09-25 06:43:01 51°15.111 2°54.449 344.3 11.6 335 8.3
2007-09-25 06:43:06 51°15.125 2°54.439 344 11.5 335 8
2007-09-25 06:43:11 51°15.139 2°54.428 344.2 11.6 335 8.1
2007-09-25 06:43:16 51°15.154 2°54.417 344.3 11.8 335 8.4
2007-09-25 06:43:21 51°15.169 2°54.406 344.1 11.7 336 8.4
2007-09-25 06:43:26 51°15.184 2°54.395 344.7 11.8 335 8.5
2007-09-25 06:43:30 51°15.196 2°54.387 344.6 11.6 334 8.3
2007-09-25 06:43:36 51°15.213 2°54.373 343.9 11.7 334 8.5
2007-09-25 06:43:41 51°15.228 2°54.362 344 11.8 334 8.5
2007-09-25 06:43:46 51°15.242 2°54.35 343.6 11.7 334 8.7
2007-09-25 06:43:51 51°15.257 2°54.339 343.6 11.7 333 8.5
2007-09-25 06:43:56 51°15.271 2°54.327 343.3 11.8 333 8.8
2007-09-25 06:44:01 51°15.286 2°54.315 342.8 11.7 333 8.9
2007-09-25 06:44:06 51°15.3 2°54.303 342.8 11.8 333 8.7
2007-09-25 06:44:10 51°15.312 2°54.294 343.3 11.8 334 8.8
2007-09-25 06:44:15 51°15.327 2°54.282 343.5 11.9 333 8.9
2007-09-25 06:44:21 51°15.345 2°54.269 343.6 11.8 334 9
2007-09-25 06:44:26 51°15.36 2°54.259 343.9 11.7 337 8.9
2007-09-25 06:44:31 51°15.374 2°54.247 345 11.8 334 9
2007-09-25 06:44:36 51°15.389 2°54.236 344.6 11.8 336 9.2
2007-09-25 06:44:41 51°15.404 2°54.225 345 11.7 335 9.2
2007-09-25 06:44:46 51°15.419 2°54.215 344.7 11.8 335 9
2007-09-25 06:44:51 51°15.434 2°54.204 344.8 11.9 334 9.2
2007-09-25 06:44:56 51°15.449 2°54.193 344.7 11.9 335 9.3
2007-09-25 06:45:01 51°15.464 2°54.182 345.1 11.9 336 9.4
2007-09-25 06:45:06 51°15.479 2°54.171 345.1 12 334 9.6
2007-09-25 06:45:11 51°15.494 2°54.161 345.1 11.9 337 9.6
2007-09-25 06:45:16 51°15.509 2°54.15 345.6 11.9 335 9.5
2007-09-25 06:45:21 51°15.524 2°54.139 346.1 11.9 336 9.6
2007-09-25 06:45:26 51°15.539 2°54.128 345.7 12 334 9.6
2007-09-25 06:45:31 51°15.554 2°54.117 345.2 11.8 335 9.7
2007-09-25 06:45:36 51°15.569 2°54.105 345.1 12 335 9.8
2007-09-25 06:45:41 51°15.584 2°54.094 345.2 12 335 10.1
2007-09-25 06:45:46 51°15.599 2°54.084 345.1 11.7 337 9.6
2007-09-25 06:45:51 51°15.614 2°54.073 345.5 11.9 335 9.8
2007-09-25 06:45:56 51°15.629 2°54.062 345.4 11.9 335 10
2007-09-25 06:46:01 51°15.644 2°54.051 345.4 11.9 335 9.9
2007-09-25 06:46:06 51°15.659 2°54.04 345.1 11.9 336 10.2
2007-09-25 06:46:10 51°15.671 2°54.032 345.4 12 336 10.1
2007-09-25 06:46:16 51°15.689 2°54.018 345.5 12 336 10.2
2007-09-25 06:46:21 51°15.704 2°54.008 345.9 11.9 337 10.3
2007-09-25 06:46:26 51°15.719 2°53.997 345.9 12 336 10.3
2007-09-25 06:46:31 51°15.734 2°53.987 345.8 11.9 337 10.3
2007-09-25 06:46:36 51°15.749 2°53.976 345.7 12 334 10.2
2007-09-25 06:46:41 51°15.765 2°53.965 345.1 11.9 336 10.5
2007-09-25 06:46:46 51°15.78 2°53.955 345.6 11.9 335 10.2
2007-09-25 06:46:51 51°15.795 2°53.943 345.2 11.9 335 10.5
2007-09-25 06:46:55 51°15.807 2°53.934 345 11.9 335 10.5
2007-09-25 06:47:01 51°15.825 2°53.921 345.4 11.9 335 10.3
2007-09-25 06:47:06 51°15.84 2°53.911 345.4 11.9 337 10.5
2007-09-25 06:47:11 51°15.855 2°53.9 345.8 11.8 335 10.6
2007-09-25 06:47:16 51°15.87 2°53.889 345.4 11.9 336 10.5
2007-09-25 06:47:21 51°15.885 2°53.878 345.2 11.9 334 10.8
2007-09-25 06:47:26 51°15.899 2°53.867 344 11.8 335 10.3
2007-09-25 06:47:31 51°15.915 2°53.857 344.3 11.6 337 10.8
2007-09-25 06:47:36 51°15.929 2°53.849 345.9 11.2 341 10.5
2007-09-25 06:47:41 51°15.944 2°53.847 352.9 10.8 355 10.5
2007-09-25 06:47:46 51°15.958 2°53.848 2.9 10.2 5 10.9
2007-09-25 06:47:51 51°15.972 2°53.853 12.5 9.7 12 10.7
2007-09-25 06:47:56 51°15.983 2°53.862 21.6 9.3 25 10.7
2007-09-25 06:48:01 51°15.995 2°53.871 30.1 9 28 10.9
2007-09-25 06:48:06 51°16.004 2°53.884 38.3 8.9 41 10.7
2007-09-25 06:48:11 51°16.012 2°53.898 45.6 8.8 45 11.1
2007-09-25 06:48:16 51°16.018 2°53.914 51.9 8.8 56 11.1
2007-09-25 06:48:21 51°16.025 2°53.93 58.7 8.7 57 10.9
2007-09-25 06:48:26 51°16.031 2°53.947 62.4 8.8 60 11
2007-09-25 06:48:31 51°16.038 2°53.963 63.5 8.8 56 11
2007-09-25 06:48:36 51°16.044 2°53.98 62.2 8.9 58 11
2007-09-25 06:48:41 51°16.052 2°53.994 59.6 8.7 47 11.2
2007-09-25 06:48:46 51°16.061 2°54.008 54.4 8.6 44 11.1
2007-09-25 06:48:50 51°16.068 2°54.018 49.1 8.8 39 11.1
2007-09-25 06:48:55 51°16.078 2°54.029 44.7 8.8 36 10.9
2007-09-25 06:49:01 51°16.091 2°54.042 41.7 8.9 33 11
2007-09-25 06:49:06 51°16.101 2°54.054 40.6 9 37 11
2007-09-25 06:49:11 51°16.111 2°54.066 41.3 9.1 37 11
2007-09-25 06:49:16 51°16.121 2°54.079 43.6 9.1 38 11
2007-09-25 06:49:21 51°16.13 2°54.092 44.7 9.2 44 10.9
2007-09-25 06:49:26 51°16.139 2°54.106 48.4 9.2 42 11
2007-09-25 06:49:31 51°16.147 2°54.122 50.4 9.1 52 10.9
2007-09-25 06:49:36 51°16.155 2°54.137 54.8 9.1 50 10.9
2007-09-25 06:49:41 51°16.163 2°54.153 56.4 9 53 11
2007-09-25 06:49:46 51°16.171 2°54.169 56.7 9.1 50 10.8
2007-09-25 06:49:51 51°16.179 2°54.184 56.3 9.1 49 10.9
2007-09-25 06:49:56 51°16.188 2°54.198 54 9 45 11
2007-09-25 06:50:01 51°16.197 2°54.211 49.7 8.8 42 10.9
2007-09-25 06:50:06 51°16.207 2°54.222 46.7 8.3 35 10.9
2007-09-25 06:50:11 51°16.215 2°54.231 42.6 7.6 33 10.9
2007-09-25 06:50:16 51°16.224 2°54.238 39.7 7 30 10.9
2007-09-25 06:50:21 51°16.232 2°54.245 37.3 6.5 27 10.9
2007-09-25 06:50:26 51°16.24 2°54.251 34.8 6 28 11
2007-09-25 06:50:31 51°16.247 2°54.256 34.1 5.7 25 11
2007-09-25 06:50:36 51°16.253 2°54.262 34.2 5.3 27 11.2
2007-09-25 06:50:41 51°16.258 2°54.268 36.2 4.7 36 11.1
2007-09-25 06:50:46 51°16.263 2°54.274 41.2 4.2 38 10.9
2007-09-25 06:50:50 51°16.266 2°54.278 46.2 3.8 41 11
2007-09-25 06:50:55 51°16.27 2°54.283 48.5 3.3 41 11
2007-09-25 06:51:01 51°16.274 2°54.287 48.9 2.8 35 11
2007-09-25 06:51:06 51°16.276 2°54.29 46.9 2.2 28 11.2
2007-09-25 06:51:11 51°16.278 2°54.292 42.3 1.7 26 11.3
2007-09-25 06:51:16 51°16.28 2°54.292 37.7 1.3 10 11.2
2007-09-25 06:51:21 51°16.281 2°54.292 32.4 0.9 1 11.2
2007-09-25 06:51:26 51°16.282 2°54.291 27.5 0.7 343 11.1
2007-09-25 06:51:31 51°16.282 2°54.291 23.4 0.6 333 11
2007-09-25 06:51:36 51°16.283 2°54.29 19.7 0.6 331 11
2007-09-25 06:51:41 51°16.284 2°54.289 15.9 0.8 317 11.1
2007-09-25 06:51:46 51°16.285 2°54.288 12.5 0.7 323 11.2
2007-09-25 06:51:51 51°16.285 2°54.286 9.6 0.7 314 11
2007-09-25 06:51:56 51°16.286 2°54.285 7.3 0.7 307 10.9
2007-09-25 06:52:01 51°16.287 2°54.284 6.4 0.8 304 11
2007-09-25 06:52:06 51°16.287 2°54.283 5.5 0.8 308 11.1
2007-09-25 06:52:11 51°16.288 2°54.282 4.6 0.6 315 11.1
2007-09-25 06:52:16 51°16.289 2°54.281 3.6 0.8 304 11.2
2007-09-25 06:52:21 51°16.289 2°54.279 2.3 0.7 306 11.1
2007-09-25 06:52:26 51°16.29 2°54.278 1.3 0.7 309 11.2
2007-09-25 06:52:31 51°16.291 2°54.276 0.2 0.8 306 11.2
2007-09-25 06:52:36 51°16.291 2°54.275 359.1 0.8 306 11.3
2007-09-25 06:52:41 51°16.292 2°54.273 357.6 0.8 297 11.2
2007-09-25 06:52:46 51°16.292 2°54.272 356.9 0.8 299 11
2007-09-25 06:52:50 51°16.293 2°54.27 355.9 0.8 293 11
2007-09-25 06:52:56 51°16.293 2°54.268 354.5 0.8 288 11.1
2007-09-25 06:53:01 51°16.294 2°54.267 353.9 0.8 288 11
2007-09-25 06:53:06 51°16.294 2°54.265 353.4 0.9 288 11.1
2007-09-25 06:53:11 51°16.295 2°54.263 352.2 0.8 293 11.1
2007-09-25 06:53:16 51°16.295 2°54.261 351.2 0.9 286 11.1
2007-09-25 06:53:21 51°16.295 2°54.259 350.2 0.8 282 11.1
2007-09-25 06:53:26 51°16.296 2°54.257 349.1 1 275 11
2007-09-25 06:53:30 51°16.296 2°54.256 348.3 0.8 277 11.1
2007-09-25 06:53:35 51°16.296 2°54.254 347.5 0.9 270 11
2007-09-25 06:53:40 51°16.296 2°54.253 346.5 0.9 277 11
2007-09-25 06:53:46 51°16.297 2°54.25 345.3 0.8 287 11.1
2007-09-25 06:53:51 51°16.297 2°54.249 344 0.9 289 11.2
2007-09-25 06:53:56 51°16.297 2°54.247 342.5 0.7 296 11.3
2007-09-25 06:54:01 51°16.297 2°54.245 341.6 0.7 282 11
2007-09-25 06:54:06 51°16.297 2°54.244 340.7 0.7 267 11
2007-09-25 06:54:11 51°16.297 2°54.242 340.1 0.8 271 11.1
2007-09-25 06:54:16 51°16.297 2°54.24 339.3 0.8 266 11.1
2007-09-25 06:54:21 51°16.297 2°54.239 338.7 0.8 266 11.2
2007-09-25 06:54:26 51°16.297 2°54.237 337.7 0.8 271 11.4
2007-09-25 06:54:31 51°16.297 2°54.236 336.7 0.7 272 11.4
2007-09-25 06:54:36 51°16.297 2°54.234 335.6 0.9 264 11.3
2007-09-25 06:54:41 51°16.297 2°54.232 335.3 0.8 265 11.4
2007-09-25 06:54:46 51°16.297 2°54.231 334.4 0.8 262 11.3
2007-09-25 06:54:50 51°16.297 2°54.23 333.7 0.7 263 11.2
2007-09-25 06:54:56 51°16.296 2°54.227 333.3 0.7 264 11.2
2007-09-25 06:55:01 51°16.296 2°54.226 332.5 0.6 267 11.3
2007-09-25 06:55:06 51°16.295 2°54.224 331.9 0.7 254 11.1
2007-09-25 06:55:11 51°16.295 2°54.223 331.6 0.7 249 11
2007-09-25 06:55:16 51°16.294 2°54.221 331.4 0.7 247 11.1
2007-09-25 06:55:21 51°16.294 2°54.22 330.9 0.8 248 11.2
2007-09-25 06:55:26 51°16.294 2°54.219 330.3 0.6 254 11.3
2007-09-25 06:55:30 51°16.294 2°54.218 329.6 0.8 252 11.4
2007-09-25 06:55:35 51°16.294 2°54.216 329 0.6 254 11.3
2007-09-25 06:55:41 51°16.293 2°54.214 328.6 0.9 262 11.3
2007-09-25 06:55:46 51°16.294 2°54.212 328.4 0.9 280 11.3
2007-09-25 06:55:50 51°16.294 2°54.211 328.9 1.1 288 11.2
2007-09-25 06:55:56 51°16.295 2°54.208 328.7 1.3 294 11.2
2007-09-25 06:56:01 51°16.296 2°54.205 328.9 1.7 301 11.3
2007-09-25 06:56:06 51°16.298 2°54.201 328.3 1.8 302 11.3
2007-09-25 06:56:11 51°16.299 2°54.197 328 2.2 305 11.4
2007-09-25 06:56:16 51°16.301 2°54.192 327.8 2.7 306 11.3
2007-09-25 06:56:21 51°16.304 2°54.187 327.2 3.1 305 11.3
2007-09-25 06:56:26 51°16.307 2°54.181 326.1 3.3 308 11.1
2007-09-25 06:56:31 51°16.311 2°54.174 325.6 4 307 11.2
2007-09-25 06:56:36 51°16.315 2°54.166 325.5 4.7 309 11.2
2007-09-25 06:56:41 51°16.32 2°54.157 325.2 5.3 309 11.2
2007-09-25 06:56:46 51°16.325 2°54.147 325.1 5.9 312 11.1
2007-09-25 06:56:51 51°16.331 2°54.136 325.5 6.5 312 11.1
2007-09-25 06:56:56 51°16.338 2°54.125 325.7 7.3 314 11.1
2007-09-25 06:57:01 51°16.346 2°54.112 326.7 8 315 11.1
2007-09-25 06:57:06 51°16.355 2°54.099 328.3 8.8 316 11.1
2007-09-25 06:57:10 51°16.362 2°54.087 328.7 9.5 318 11.3
2007-09-25 06:57:16 51°16.375 2°54.069 329.3 10.2 318 11.2
2007-09-25 06:57:21 51°16.386 2°54.053 329.5 10.5 319 11.1
2007-09-25 06:57:26 51°16.397 2°54.037 329.3 11.1 317 11.1
2007-09-25 06:57:30 51°16.407 2°54.023 328 11.4 316 11.1
2007-09-25 06:57:36 51°16.42 2°54.002 326.1 11.6 315 11.3
2007-09-25 06:57:41 51°16.432 2°53.983 325 11.8 315 11
2007-09-25 06:57:46 51°16.443 2°53.964 324.3 11.9 314 11.4
2007-09-25 06:57:50 51°16.452 2°53.949 323.4 11.9 315 11
2007-09-25 06:57:56 51°16.466 2°53.926 323 11.9 313 11.5
2007-09-25 06:58:01 51°16.477 2°53.907 322.7 12 313 11.4
2007-09-25 06:58:06 51°16.489 2°53.887 322.3 12.2 312 11.5
2007-09-25 06:58:11 51°16.5 2°53.867 322 12.2 312 11.3
2007-09-25 06:58:16 51°16.512 2°53.847 321.5 12.3 311 11.3
2007-09-25 06:58:21 51°16.523 2°53.826 321.3 12.3 312 11.3
2007-09-25 06:58:26 51°16.535 2°53.806 321.3 12.5 311 11.3
2007-09-25 06:58:30 51°16.544 2°53.79 321.1 12.3 313 11.4
2007-09-25 06:58:36 51°16.557 2°53.766 321 12.3 312 11.2
2007-09-25 06:58:41 51°16.569 2°53.745 321.2 12.4 312 11.3
2007-09-25 06:58:46 51°16.58 2°53.725 320.8 12.3 312 11.1
2007-09-25 06:58:51 51°16.592 2°53.705 321 12.4 313 11
2007-09-25 06:58:56 51°16.604 2°53.685 321.4 12.3 312 11.4
2007-09-25 06:59:01 51°16.615 2°53.665 321.5 12.2 313 11
2007-09-25 06:59:06 51°16.627 2°53.645 321.9 12.4 313 11.1
2007-09-25 06:59:11 51°16.638 2°53.625 321.8 12.2 313 11.5
2007-09-25 06:59:16 51°16.65 2°53.606 322.2 12.2 313 11.3
2007-09-25 06:59:21 51°16.661 2°53.586 322.2 12.2 312 11.1
2007-09-25 06:59:26 51°16.673 2°53.566 321.9 12.2 313 11.3
2007-09-25 06:59:30 51°16.682 2°53.55 321.6 12 313 10.8
2007-09-25 06:59:36 51°16.695 2°53.527 321.5 12.1 314 11.1
2007-09-25 06:59:41 51°16.707 2°53.507 321.9 12.2 312 11.2
2007-09-25 06:59:46 51°16.718 2°53.487 321.2 12.1 313 11
2007-09-25 06:59:50 51°16.727 2°53.471 321 12.2 311 11.1
2007-09-25 06:59:56 51°16.74 2°53.447 320.5 12.1 313 10.9
2007-09-25 07:00:01 51°16.752 2°53.427 320.9 12.1 313 11
2007-09-25 07:00:06 51°16.763 2°53.408 321.6 12.1 313 11
2007-09-25 07:00:11 51°16.774 2°53.388 321.6 12.1 312 11
2007-09-25 07:00:16 51°16.786 2°53.368 321.6 12.2 313 11.1
2007-09-25 07:00:21 51°16.797 2°53.348 321.6 12 313 10.9
2007-09-25 07:00:26 51°16.809 2°53.329 321.6 12 313 10.6
2007-09-25 07:00:30 51°16.818 2°53.313 322.3 12.2 312 10.8
2007-09-25 07:00:36 51°16.831 2°53.288 321.7 12.1 312 10.8
2007-09-25 07:00:41 51°16.842 2°53.269 321 12.1 313 10.5
2007-09-25 07:00:46 51°16.853 2°53.248 321.2 12.1 313 10.3
2007-09-25 07:00:51 51°16.864 2°53.228 321.3 12 312 9.5
2007-09-25 07:00:56 51°16.875 2°53.208 321.1 11.8 312 9
2007-09-25 07:01:00 51°16.884 2°53.193 321.1 11.8 312 8.5
2007-09-25 07:01:06 51°16.897 2°53.169 321.2 11.7 311 8.2
2007-09-25 07:01:11 51°16.907 2°53.15 320.9 11.7 311 8
2007-09-25 07:01:16 51°16.918 2°53.131 320.9 11.6 312 8.1
2007-09-25 07:01:21 51°16.929 2°53.112 321.5 11.7 313 8.1
2007-09-25 07:01:26 51°16.94 2°53.093 321.9 11.7 312 8.3
2007-09-25 07:01:31 51°16.951 2°53.074 321.5 11.5 313 7.9
2007-09-25 07:01:36 51°16.962 2°53.055 322.1 11.7 312 8.3
2007-09-25 07:01:41 51°16.972 2°53.036 322 11.6 312 8.4
2007-09-25 07:01:46 51°16.983 2°53.017 321.6 11.7 312 8
2007-09-25 07:01:51 51°16.995 2°52.998 322.3 11.8 313 8.4
2007-09-25 07:01:56 51°17.006 2°52.978 322.5 11.9 312 8.5
2007-09-25 07:02:01 51°17.017 2°52.958 321.8 11.9 312 8.6
2007-09-25 07:02:06 51°17.028 2°52.939 321.4 11.8 312 8.4
2007-09-25 07:02:11 51°17.039 2°52.92 321.4 12 312 9
2007-09-25 07:02:15 51°17.048 2°52.904 321.5 11.7 312 9.5
2007-09-25 07:02:21 51°17.061 2°52.882 321.6 11.7 313 9
2007-09-25 07:02:26 51°17.072 2°52.863 322.7 11.8 313 9.5
2007-09-25 07:02:30 51°17.081 2°52.847 322.9 11.9 313 9.5
2007-09-25 07:02:36 51°17.094 2°52.824 322.4 11.9 312 9.5
2007-09-25 07:02:41 51°17.106 2°52.804 322.2 12 313 9.8
2007-09-25 07:02:46 51°17.117 2°52.785 322.3 12.1 312 9.8
2007-09-25 07:02:51 51°17.129 2°52.765 322.4 11.9 313 10.1
2007-09-25 07:02:56 51°17.14 2°52.746 322.7 11.9 313 9.7
2007-09-25 07:03:00 51°17.149 2°52.731 323.2 12 314 9.9
2007-09-25 07:03:06 51°17.163 2°52.708 323.1 11.9 313 9.6
2007-09-25 07:03:11 51°17.174 2°52.689 322.9 12 314 9.4
2007-09-25 07:03:16 51°17.186 2°52.669 323.2 12 313 9.6
2007-09-25 07:03:21 51°17.197 2°52.65 322.8 11.8 313 9.6
2007-09-25 07:03:26 51°17.208 2°52.631 322.9 11.9 314 9.5
2007-09-25 07:03:31 51°17.22 2°52.613 323.3 11.8 314 9.5
2007-09-25 07:03:36 51°17.231 2°52.593 323.4 11.9 313 9.3
2007-09-25 07:03:41 51°17.242 2°52.574 323 11.9 314 9.7
2007-09-25 07:03:46 51°17.253 2°52.554 322.8 11.9 312 9.9
2007-09-25 07:03:51 51°17.265 2°52.536 322.1 11.9 313 9.7
2007-09-25 07:03:56 51°17.276 2°52.515 322.2 12 311 10
2007-09-25 07:04:01 51°17.287 2°52.496 321.7 12 313 9.9
2007-09-25 07:04:06 51°17.298 2°52.476 321.9 12.1 312 10.1
2007-09-25 07:04:10 51°17.307 2°52.461 321.6 12.1 312 10.1
2007-09-25 07:04:16 51°17.32 2°52.437 321.6 12 312 10.1
2007-09-25 07:04:21 51°17.331 2°52.417 321.8 12.1 312 10.2
2007-09-25 07:04:26 51°17.342 2°52.397 321.9 12 311 10
2007-09-25 07:04:30 51°17.351 2°52.381 321.5 12 312 10.1
2007-09-25 07:04:36 51°17.365 2°52.358 321.6 12 312 10.3
2007-09-25 07:04:41 51°17.376 2°52.338 322 12 312 10.3
2007-09-25 07:04:46 51°17.387 2°52.318 321.9 11.9 312 10.1
2007-09-25 07:04:51 51°17.398 2°52.299 322 11.9 313 10.1
2007-09-25 07:04:56 51°17.409 2°52.279 322.3 12 311 10.2
2007-09-25 07:05:01 51°17.421 2°52.259 322 12 312 10.3
2007-09-25 07:05:06 51°17.432 2°52.239 322.1 12 312 10.1
2007-09-25 07:05:11 51°17.443 2°52.22 321.8 12 313 10.2
2007-09-25 07:05:16 51°17.454 2°52.2 322 12.1 312 10.5
2007-09-25 07:05:21 51°17.465 2°52.181 322.1 11.9 313 10.2
2007-09-25 07:05:26 51°17.477 2°52.161 322.1 11.9 314 10.3
2007-09-25 07:05:31 51°17.488 2°52.142 322.8 12 313 9.9
2007-09-25 07:05:36 51°17.499 2°52.122 322.3 12 313 10.2
2007-09-25 07:05:41 51°17.511 2°52.103 322.3 12 313 10.4
2007-09-25 07:05:46 51°17.522 2°52.084 322.3 12 312 10.2
2007-09-25 07:05:51 51°17.533 2°52.064 322.2 12 313 10.5
2007-09-25 07:05:56 51°17.545 2°52.045 322.4 12.1 312 10.4
2007-09-25 07:06:01 51°17.556 2°52.025 321.8 12.1 312 10.4
2007-09-25 07:06:06 51°17.567 2°52.005 321.5 12 311 10.6
2007-09-25 07:06:11 51°17.578 2°51.985 321.5 11.9 312 10.2
2007-09-25 07:06:16 51°17.589 2°51.966 322.1 12 313 10.3
2007-09-25 07:06:21 51°17.601 2°51.947 322.5 11.9 313 10.5
2007-09-25 07:06:26 51°17.612 2°51.927 322.8 11.9 312 10.1
2007-09-25 07:06:31 51°17.623 2°51.908 322.2 11.9 314 10.2
2007-09-25 07:06:36 51°17.634 2°51.889 322.5 12 312 10.4
2007-09-25 07:06:41 51°17.646 2°51.87 322.4 12 313 10.1
2007-09-25 07:06:46 51°17.657 2°51.85 322.2 12.1 312 10.1
2007-09-25 07:06:51 51°17.668 2°51.831 322.4 11.9 312 9.6
2007-09-25 07:06:56 51°17.679 2°51.811 322.5 11.9 312 10.1
2007-09-25 07:07:01 51°17.691 2°51.792 321.8 11.9 313 10
2007-09-25 07:07:06 51°17.702 2°51.773 322.2 11.9 313 9.7
2007-09-25 07:07:11 51°17.713 2°51.753 322.5 11.9 313 9.8
2007-09-25 07:07:16 51°17.725 2°51.734 322.6 12 313 10.1
2007-09-25 07:07:21 51°17.736 2°51.715 322.2 11.9 312 10
2007-09-25 07:07:26 51°17.747 2°51.695 321.5 12 311 9.9
2007-09-25 07:07:31 51°17.758 2°51.675 321.3 12.1 313 10
2007-09-25 07:07:36 51°17.769 2°51.655 321.5 12 313 10
2007-09-25 07:07:41 51°17.781 2°51.636 322.3 12 313 10
2007-09-25 07:07:46 51°17.792 2°51.617 322.5 12 314 9.7
2007-09-25 07:07:51 51°17.804 2°51.598 323.6 12 315 10.3
2007-09-25 07:07:56 51°17.816 2°51.579 323.9 11.9 315 10
2007-09-25 07:08:01 51°17.827 2°51.56 324 12 314 10.2
2007-09-25 07:08:06 51°17.839 2°51.541 323.8 12 316 10
2007-09-25 07:08:11 51°17.85 2°51.522 324.1 11.9 314 10.1
2007-09-25 07:08:16 51°17.862 2°51.504 323.8 12 315 10.2
2007-09-25 07:08:21 51°17.874 2°51.485 324.2 11.8 314 10.4
2007-09-25 07:08:26 51°17.885 2°51.467 323.8 11.8 315 10
2007-09-25 07:08:31 51°17.897 2°51.448 323.6 11.9 314 10.6
2007-09-25 07:08:36 51°17.909 2°51.43 323.7 11.7 315 10.3
2007-09-25 07:08:41 51°17.92 2°51.411 323.9 11.8 315 10.1
2007-09-25 07:08:46 51°17.932 2°51.392 323.8 11.9 315 10.7
2007-09-25 07:08:50 51°17.941 2°51.376 323.6 12 314 10.9
2007-09-25 07:08:56 51°17.955 2°51.353 323.2 12.1 314 10.7
2007-09-25 07:09:01 51°17.966 2°51.334 323.5 12.1 314 11.2
2007-09-25 07:09:06 51°17.978 2°51.315 323.1 12.1 314 11
2007-09-25 07:09:11 51°17.99 2°51.296 323.6 12.1 315 11
2007-09-25 07:09:16 51°18.001 2°51.277 324.2 12.1 315 11.2
2007-09-25 07:09:21 51°18.014 2°51.258 325 12.2 316 11.1
2007-09-25 07:09:26 51°18.026 2°51.24 325.7 12.1 316 11.6
2007-09-25 07:09:31 51°18.038 2°51.221 325.4 12.2 316 11.4
2007-09-25 07:09:36 51°18.05 2°51.203 325.8 12.1 317 11.7
2007-09-25 07:09:41 51°18.063 2°51.185 325.5 12 318 11.1
2007-09-25 07:09:46 51°18.075 2°51.167 326.6 12.1 317 11.7
2007-09-25 07:09:50 51°18.085 2°51.152 326.3 11.9 316 11.6
2007-09-25 07:09:56 51°18.099 2°51.131 325.8 11.9 317 11.4
2007-09-25 07:10:01 51°18.111 2°51.113 326.1 12 317 11.9
2007-09-25 07:10:06 51°18.123 2°51.094 325.6 12 316 12
2007-09-25 07:10:11 51°18.135 2°51.076 325.2 12 316 12.7
2007-09-25 07:10:16 51°18.147 2°51.057 325.6 11.9 316 12.6
2007-09-25 07:10:21 51°18.159 2°51.039 326.1 12.1 315 12.6
2007-09-25 07:10:26 51°18.171 2°51.021 326 12 317 12.8
2007-09-25 07:10:31 51°18.183 2°51.003 325.9 11.8 317 13.1
2007-09-25 07:10:36 51°18.195 2°50.985 325.8 11.9 317 12.8
2007-09-25 07:10:41 51°18.207 2°50.967 326.1 11.7 317 13
2007-09-25 07:10:46 51°18.219 2°50.95 326.1 11.7 319 12.5
2007-09-25 07:10:51 51°18.231 2°50.932 327.3 11.7 318 13
2007-09-25 07:10:56 51°18.243 2°50.914 326.2 11.7 315 12.8
2007-09-25 07:11:01 51°18.254 2°50.896 325 11.6 317 13.1
2007-09-25 07:11:06 51°18.266 2°50.877 325.7 11.8 316 13.3
2007-09-25 07:11:11 51°18.278 2°50.859 325.3 11.8 316 13.1
2007-09-25 07:11:16 51°18.29 2°50.841 325.7 11.7 316 13.2
2007-09-25 07:11:21 51°18.302 2°50.824 326.1 11.8 318 12.7
2007-09-25 07:11:26 51°18.313 2°50.805 326.2 11.8 316 13.2
2007-09-25 07:11:30 51°18.323 2°50.791 325.5 12 317 13.4
2007-09-25 07:11:36 51°18.337 2°50.769 325.6 11.7 316 13.3
2007-09-25 07:11:41 51°18.349 2°50.752 325.7 11.5 320 13.5
2007-09-25 07:11:46 51°18.362 2°50.74 331.8 10.5 330 13.7
2007-09-25 07:11:51 51°18.375 2°50.734 341.8 9.6 341 13.7
2007-09-25 07:11:56 51°18.386 2°50.73 351.2 8.7 348 13.9
2007-09-25 07:12:01 51°18.397 2°50.731 358.5 7.9 1 13.9
2007-09-25 07:12:06 51°18.407 2°50.735 12.3 7.2 14 13.7
2007-09-25 07:12:11 51°18.415 2°50.741 23.1 6.8 24 13.7
2007-09-25 07:12:16 51°18.422 2°50.75 32.6 6.7 36 13.8
2007-09-25 07:12:21 51°18.43 2°50.759 39.8 6.7 37 14
2007-09-25 07:12:26 51°18.436 2°50.77 45 6.8 45 14.2
2007-09-25 07:12:31 51°18.443 2°50.781 49.1 6.9 48 14.4
2007-09-25 07:12:36 51°18.448 2°50.794 53.3 7 57 14.3
2007-09-25 07:12:41 51°18.454 2°50.807 56.9 7 57 14
2007-09-25 07:12:46 51°18.459 2°50.821 59.5 7.2 58 14.1
2007-09-25 07:12:51 51°18.464 2°50.834 59.9 7.3 58 14.3
2007-09-25 07:12:56 51°18.468 2°50.85 61.8 7.4 67 14
2007-09-25 07:13:01 51°18.473 2°50.863 65 7 65 14
2007-09-25 07:13:06 51°18.475 2°50.877 68.5 6.6 74 14
2007-09-25 07:13:11 51°18.477 2°50.89 73.1 6.1 74 14
2007-09-25 07:13:16 51°18.479 2°50.903 74 5.8 79 13.9
2007-09-25 07:13:21 51°18.48 2°50.915 76.5 5.5 75 14.1
2007-09-25 07:13:26 51°18.481 2°50.926 76 5.3 80 13.9
2007-09-25 07:13:31 51°18.484 2°50.937 76.4 4.9 71 13.9
2007-09-25 07:13:36 51°18.484 2°50.947 74.4 4.7 83 13.9
2007-09-25 07:13:41 51°18.487 2°50.956 73 4.2 70 13.8
2007-09-25 07:13:46 51°18.488 2°50.964 70.5 4 71 13.9
2007-09-25 07:13:51 51°18.491 2°50.971 65.6 3.8 63 13.8
2007-09-25 07:13:56 51°18.493 2°50.978 61.7 3.6 59 13.9
2007-09-25 07:14:01 51°18.495 2°50.985 58.1 3.3 58 13.9
2007-09-25 07:14:06 51°18.498 2°50.99 54 3.1 50 13.8
2007-09-25 07:14:10 51°18.5 2°50.994 52.4 2.9 46 13.9
2007-09-25 07:14:16 51°18.503 2°50.999 50.1 2.5 51 13.8
2007-09-25 07:14:21 51°18.505 2°51.003 47.7 2.3 54 13.5
2007-09-25 07:14:26 51°18.507 2°51.006 48.3 2.1 40 13.6
2007-09-25 07:14:31 51°18.509 2°51.009 48 2 45 13.8
2007-09-25 07:14:36 51°18.51 2°51.012 48.7 1.7 54 13.9
2007-09-25 07:14:41 51°18.512 2°51.015 50.5 1.5 50 13.8
2007-09-25 07:14:46 51°18.513 2°51.017 53 1.4 53 13.8
2007-09-25 07:14:51 51°18.514 2°51.02 54.9 1.4 58 14.1
2007-09-25 07:14:56 51°18.514 2°51.023 58 1.3 72 14.2
2007-09-25 07:15:01 51°18.515 2°51.025 59.7 1.3 64 14.2
2007-09-25 07:15:06 51°18.515 2°51.028 61.7 1.2 74 14.2
2007-09-25 07:15:11 51°18.516 2°51.03 63.4 1.1 83 14.1
2007-09-25 07:15:16 51°18.516 2°51.032 64.9 1.1 86 14.1
2007-09-25 07:15:21 51°18.516 2°51.035 66.1 1 81 14
2007-09-25 07:15:26 51°18.516 2°51.037 67.5 1.2 86 14.1
2007-09-25 07:15:31 51°18.516 2°51.039 68.9 1.1 83 14
2007-09-25 07:15:36 51°18.516 2°51.041 70 1 79 13.9
2007-09-25 07:15:41 51°18.516 2°51.043 69.6 1 87 14
2007-09-25 07:15:46 51°18.516 2°51.045 70.4 0.9 89 13.8
2007-09-25 07:15:50 51°18.516 2°51.047 71.3 0.9 91 13.6
2007-09-25 07:15:56 51°18.516 2°51.05 72.2 0.9 94 13.7
2007-09-25 07:16:01 51°18.516 2°51.051 73.1 0.8 86 13.8
2007-09-25 07:16:06 51°18.516 2°51.053 73.5 0.8 108 13.9
2007-09-25 07:16:11 51°18.515 2°51.054 74.7 0.7 106 14.1
2007-09-25 07:16:16 51°18.515 2°51.056 76.2 0.7 122 14.1
2007-09-25 07:16:21 51°18.514 2°51.057 78.3 0.6 131 14
2007-09-25 07:16:26 51°18.513 2°51.058 80.7 0.7 139 14
2007-09-25 07:16:31 51°18.513 2°51.059 83.2 0.6 145 13.9
2007-09-25 07:16:36 51°18.512 2°51.06 85.4 0.6 143 13.9
2007-09-25 07:16:41 51°18.511 2°51.061 87.4 0.6 149 14
2007-09-25 07:16:46 51°18.511 2°51.061 89.7 0.7 144 13.8
2007-09-25 07:16:51 51°18.51 2°51.062 91.8 0.7 150 13.8
2007-09-25 07:16:56 51°18.509 2°51.063 93.1 0.7 148 14
2007-09-25 07:17:01 51°18.508 2°51.063 94.3 0.8 159 13.9
2007-09-25 07:17:06 51°18.507 2°51.064 96.2 0.7 154 13.8
2007-09-25 07:17:11 51°18.506 2°51.065 97.7 0.7 161 13.8
2007-09-25 07:17:16 51°18.505 2°51.065 98.9 0.7 159 13.9
2007-09-25 07:17:21 51°18.504 2°51.066 100.1 0.8 166 13.9
2007-09-25 07:17:26 51°18.503 2°51.066 101.6 0.6 170 13.9
2007-09-25 07:17:31 51°18.502 2°51.066 102.8 0.7 177 14
2007-09-25 07:17:36 51°18.501 2°51.066 104.1 0.6 174 13.9
2007-09-25 07:17:41 51°18.5 2°51.067 105.3 0.8 174 13.9
2007-09-25 07:17:46 51°18.499 2°51.067 106.3 0.8 173 14.1
2007-09-25 07:17:50 51°18.498 2°51.067 107.7 0.8 180 13.9
2007-09-25 07:17:56 51°18.497 2°51.067 109 0.7 186 13.8
2007-09-25 07:18:01 51°18.496 2°51.067 110.3 0.7 184 13.7
2007-09-25 07:18:06 51°18.495 2°51.067 111.3 0.7 177 13.6
2007-09-25 07:18:11 51°18.494 2°51.067 111.7 0.8 180 13.9
2007-09-25 07:18:16 51°18.493 2°51.067 112.6 0.8 188 13.9
2007-09-25 07:18:21 51°18.492 2°51.067 113.9 0.7 189 13.8
2007-09-25 07:18:26 51°18.491 2°51.066 114.5 0.7 194 13.7
2007-09-25 07:18:30 51°18.49 2°51.067 115.4 0.6 184 13.6
2007-09-25 07:18:36 51°18.488 2°51.067 116.1 0.9 184 13.7
2007-09-25 07:18:41 51°18.487 2°51.067 117.5 0.9 182 13.8
2007-09-25 07:18:46 51°18.486 2°51.067 118.7 0.8 180 13.9
2007-09-25 07:18:51 51°18.485 2°51.066 119.3 0.8 182 13.8
2007-09-25 07:18:56 51°18.484 2°51.066 119.9 0.8 184 13.9
2007-09-25 07:19:01 51°18.483 2°51.066 120.4 0.9 188 14
2007-09-25 07:19:06 51°18.482 2°51.066 121.2 0.8 186 13.9
2007-09-25 07:19:11 51°18.48 2°51.066 121.9 0.9 173 13.9
2007-09-25 07:19:16 51°18.479 2°51.067 121.6 0.9 163 13.9
2007-09-25 07:19:21 51°18.477 2°51.067 120.7 1.2 163 13.9
2007-09-25 07:19:26 51°18.476 2°51.069 119.8 1.2 152 13.8
2007-09-25 07:19:31 51°18.474 2°51.07 119 1.5 148 13.9
2007-09-25 07:19:36 51°18.473 2°51.073 117.8 1.8 132 13.7
2007-09-25 07:19:41 51°18.471 2°51.077 115 2.2 125 13.8
2007-09-25 07:19:46 51°18.469 2°51.082 110.3 2.6 120 13.7
2007-09-25 07:19:51 51°18.467 2°51.088 105.2 2.9 112 13.8
2007-09-25 07:19:56 51°18.467 2°51.095 99.7 3 101 13.9
2007-09-25 07:20:01 51°18.466 2°51.102 93.6 3.1 95 13.8
2007-09-25 07:20:06 51°18.466 2°51.109 87.8 3.3 91 13.7
2007-09-25 07:20:11 51°18.467 2°51.117 81.9 3.5 79 13.7
2007-09-25 07:20:16 51°18.469 2°51.124 75.1 3.6 71 13.8
2007-09-25 07:20:21 51°18.471 2°51.132 68.6 3.9 68 13.8
2007-09-25 07:20:26 51°18.473 2°51.141 65.6 4.5 63 13.8
2007-09-25 07:20:30 51°18.476 2°51.149 64 5.1 67 13.7
2007-09-25 07:20:36 51°18.48 2°51.164 64 6.1 68 13.5
2007-09-25 07:20:41 51°18.484 2°51.177 66.8 6.7 60 13.6
2007-09-25 07:20:46 51°18.487 2°51.193 64.8 7.8 71 13.4
2007-09-25 07:20:51 51°18.494 2°51.209 67.1 8.1 59 13.4
2007-09-25 07:20:56 51°18.498 2°51.228 65.3 9.1 69 13.5
2007-09-25 07:21:01 51°18.504 2°51.246 67.9 9.5 61 13.6
2007-09-25 07:21:06 51°18.509 2°51.266 66.2 9.7 66 13.5
2007-09-25 07:21:11 51°18.516 2°51.286 67.8 10.3 62 13.7
2007-09-25 07:21:16 51°18.521 2°51.309 67.6 10.9 70 13.6
2007-09-25 07:21:21 51°18.529 2°51.328 67.4 10.3 59 13.8
2007-09-25 07:21:26 51°18.532 2°51.351 67.9 10.7 75 13.6
2007-09-25 07:21:31 51°18.54 2°51.372 71.6 11 61 13.5
2007-09-25 07:21:36 51°18.544 2°51.396 69.2 11.1 71 13.5
2007-09-25 07:21:41 51°18.552 2°51.417 69.6 10.8 62 13.5
2007-09-25 07:21:46 51°18.556 2°51.44 68.4 10.8 69 13.5
2007-09-25 07:21:51 51°18.562 2°51.463 70.2 11.4 68 13.4
2007-09-25 07:21:56 51°18.569 2°51.485 70.4 11.2 66 13.5
2007-09-25 07:22:01 51°18.573 2°51.509 69.9 11.1 72 13.4
2007-09-25 07:22:06 51°18.58 2°51.531 72.1 11.2 67 13.5
2007-09-25 07:22:11 51°18.585 2°51.555 69 11.3 74 13.4
2007-09-25 07:22:16 51°18.59 2°51.578 73.1 11.2 70 13.3
2007-09-25 07:22:21 51°18.594 2°51.602 74.6 11.1 72 13.3
2007-09-25 07:22:26 51°18.599 2°51.625 73.3 11.2 71 13.3
2007-09-25 07:22:30 51°18.605 2°51.642 71.7 10.8 64 13.4
2007-09-25 07:22:36 51°18.61 2°51.671 69.7 11.1 76 13.2
2007-09-25 07:22:41 51°18.616 2°51.693 74.2 11 65 13.2
2007-09-25 07:22:46 51°18.621 2°51.715 70.1 10.7 72 13.2
2007-09-25 07:22:51 51°18.626 2°51.738 74 11.1 70 13
2007-09-25 07:22:56 51°18.633 2°51.76 71.1 11.1 64 13
2007-09-25 07:23:01 51°18.638 2°51.782 68.7 10.7 68 13.1
2007-09-25 07:23:06 51°18.644 2°51.805 70 11.1 67 13.1
2007-09-25 07:23:11 51°18.651 2°51.828 69.4 11.4 66 13.1
2007-09-25 07:23:16 51°18.657 2°51.85 68.5 11.1 66 13.1
2007-09-25 07:23:21 51°18.662 2°51.874 69.9 11.3 70 12.9
2007-09-25 07:23:26 51°18.669 2°51.897 71 11.6 66 12.9
2007-09-25 07:23:31 51°18.676 2°51.919 67.7 10.9 64 13.1
2007-09-25 07:23:36 51°18.681 2°51.943 69.4 11.3 72 12.9
2007-09-25 07:23:41 51°18.688 2°51.965 70.9 11.5 62 12.8
2007-09-25 07:23:46 51°18.693 2°51.989 68.4 11.3 69 12.8
2007-09-25 07:23:51 51°18.7 2°52.011 71.3 11 64 12.8
2007-09-25 07:23:56 51°18.705 2°52.035 70.1 11.4 70 12.8
2007-09-25 07:24:01 51°18.712 2°52.057 70.3 11.3 64 12.8
2007-09-25 07:24:06 51°18.717 2°52.082 69.8 11.3 71 12.7
2007-09-25 07:24:11 51°18.723 2°52.105 72.5 11.5 67 12.8
2007-09-25 07:24:16 51°18.729 2°52.128 70.5 11.2 71 12.6
2007-09-25 07:24:21 51°18.734 2°52.151 72.5 11.1 68 12.7
2007-09-25 07:24:26 51°18.739 2°52.175 72.3 11.4 71 12.6
2007-09-25 07:24:31 51°18.745 2°52.198 71.7 11.2 66 12.6
2007-09-25 07:24:36 51°18.75 2°52.221 71.8 11.1 71 12.6
2007-09-25 07:24:41 51°18.757 2°52.244 71.1 11.3 67 12.6
2007-09-25 07:24:46 51°18.762 2°52.267 71.1 11.2 68 12.5
2007-09-25 07:24:51 51°18.768 2°52.29 69.6 11.2 70 12.5
2007-09-25 07:24:56 51°18.773 2°52.314 72.6 11.5 70 12.5
2007-09-25 07:25:01 51°18.78 2°52.337 69.6 11.2 66 12.3
2007-09-25 07:25:06 51°18.784 2°52.36 71.8 11.1 71 12.3
2007-09-25 07:25:11 51°18.791 2°52.383 71.3 11.1 66 12.3
2007-09-25 07:25:16 51°18.796 2°52.406 70.2 11.2 69 12.3
2007-09-25 07:25:21 51°18.803 2°52.428 70.8 11.1 64 12.3
2007-09-25 07:25:26 51°18.808 2°52.451 69 11.1 72 12.4
2007-09-25 07:25:31 51°18.815 2°52.473 70.3 11 62 12.3
2007-09-25 07:25:36 51°18.819 2°52.496 69.7 11.1 72 12.4
2007-09-25 07:25:41 51°18.826 2°52.518 70.4 11.2 65 12.2
2007-09-25 07:25:46 51°18.832 2°52.541 70.3 11.2 66 12.3
2007-09-25 07:25:50 51°18.837 2°52.559 68.2 10.9 67 12.2
2007-09-25 07:25:56 51°18.845 2°52.586 69.8 11.3 65 12.2
2007-09-25 07:26:01 51°18.851 2°52.609 68.4 11.4 65 12.2
2007-09-25 07:26:06 51°18.858 2°52.63 66.9 10.7 64 12.3
2007-09-25 07:26:11 51°18.862 2°52.654 70.9 11.2 70 12.2
2007-09-25 07:26:16 51°18.871 2°52.676 69.4 11.5 62 12.1
2007-09-25 07:26:21 51°18.876 2°52.7 68.2 11.2 68 12.1
2007-09-25 07:26:26 51°18.882 2°52.721 69.1 10.9 66 12.3
2007-09-25 07:26:31 51°18.888 2°52.744 69.4 11.3 68 12.2
2007-09-25 07:26:36 51°18.894 2°52.769 70.2 11.8 67 12.1
2007-09-25 07:26:41 51°18.902 2°52.792 68.9 11.7 66 12
2007-09-25 07:26:46 51°18.907 2°52.815 70.5 11.2 71 12.2
2007-09-25 07:26:51 51°18.912 2°52.838 70.3 11 71 12.2
2007-09-25 07:26:56 51°18.918 2°52.862 72.5 11.7 68 12
2007-09-25 07:27:01 51°18.925 2°52.884 68.6 11.3 62 12
2007-09-25 07:27:06 51°18.93 2°52.907 68.4 10.9 72 12
2007-09-25 07:27:11 51°18.936 2°52.93 73.3 11.3 65 12
2007-09-25 07:27:16 51°18.943 2°52.952 68.4 11.1 64 12.1
2007-09-25 07:27:21 51°18.948 2°52.975 69.2 11.2 69 12
2007-09-25 07:27:26 51°18.956 2°52.997 68.6 11.1 62 12.1
2007-09-25 07:27:31 51°18.96 2°53.02 68.9 11 70 12.1
2007-09-25 07:27:36 51°18.968 2°53.042 70.1 11.2 63 12
2007-09-25 07:27:41 51°18.973 2°53.066 69.2 11.5 70 12
2007-09-25 07:27:46 51°18.981 2°53.087 68.4 10.9 61 12
2007-09-25 07:27:50 51°18.984 2°53.106 69.3 11.1 74 12.1
2007-09-25 07:27:56 51°18.992 2°53.133 71.8 11.5 64 11.9
2007-09-25 07:28:01 51°18.998 2°53.156 68.4 11 66 12
2007-09-25 07:28:06 51°19.002 2°53.179 70 11 73 12
2007-09-25 07:28:11 51°19.009 2°53.201 71.8 11.3 65 12
2007-09-25 07:28:16 51°19.014 2°53.225 70 11.1 71 12
2007-09-25 07:28:21 51°19.02 2°53.247 71.5 11.1 66 12.1
2007-09-25 07:28:26 51°19.025 2°53.272 71 11.6 71 12.1
2007-09-25 07:28:31 51°19.034 2°53.293 68.4 11.1 61 12
2007-09-25 07:28:36 51°19.037 2°53.317 70.2 11.2 75 11.9
2007-09-25 07:28:41 51°19.044 2°53.34 72.5 11.4 63 12
2007-09-25 07:28:46 51°19.05 2°53.363 68.8 11.3 69 12.1
2007-09-25 07:28:51 51°19.056 2°53.386 70.4 11.4 68 12.1
2007-09-25 07:28:56 51°19.062 2°53.409 70.3 11.3 68 12.1
2007-09-25 07:29:01 51°19.067 2°53.433 70.7 11.2 71 12.1
2007-09-25 07:29:06 51°19.074 2°53.455 71.1 11.2 65 12.2
2007-09-25 07:29:11 51°19.079 2°53.479 69.2 11.4 71 12
2007-09-25 07:29:16 51°19.086 2°53.501 71.1 11.3 64 12
2007-09-25 07:29:21 51°19.091 2°53.524 68.6 11 70 12
2007-09-25 07:29:26 51°19.097 2°53.548 71.8 11.5 70 12
2007-09-25 07:29:30 51°19.103 2°53.566 70.4 11.5 65 12
2007-09-25 07:29:36 51°19.109 2°53.594 69.9 11.1 70 12.1
2007-09-25 07:29:41 51°19.115 2°53.616 70.5 10.8 68 12.2
2007-09-25 07:29:46 51°19.119 2°53.641 71.7 11.6 74 12.1
2007-09-25 07:29:50 51°19.124 2°53.66 72.6 11.6 63 12.1
2007-09-25 07:29:56 51°19.132 2°53.686 66.5 10.8 69 12.1
2007-09-25 07:30:01 51°19.136 2°53.708 71.5 10.6 72 12.1
2007-09-25 07:30:06 51°19.141 2°53.73 72.7 10.6 69 12.1
2007-09-25 07:30:11 51°19.145 2°53.755 74.4 11.3 73 12.1
2007-09-25 07:30:16 51°19.153 2°53.776 71.3 11 62 12.1
2007-09-25 07:30:21 51°19.156 2°53.799 69.2 10.6 75 12
2007-09-25 07:30:26 51°19.161 2°53.821 73.3 10.7 72 12.1
2007-09-25 07:30:31 51°19.165 2°53.846 74.7 11.7 74 12
2007-09-25 07:30:36 51°19.173 2°53.867 70 11.2 60 12.1
2007-09-25 07:30:41 51°19.177 2°53.891 68 10.9 77 12
2007-09-25 07:30:46 51°19.182 2°53.914 74.1 11.1 71 12
2007-09-25 07:30:51 51°19.187 2°53.938 72 11.3 72 12
2007-09-25 07:30:56 51°19.193 2°53.96 73.3 11 66 12.1
2007-09-25 07:31:01 51°19.198 2°53.984 71.4 11.2 72 12.1
2007-09-25 07:31:06 51°19.204 2°54.006 70.7 11.1 66 12.1
2007-09-25 07:31:11 51°19.209 2°54.029 70 11 71 12.1
2007-09-25 07:31:16 51°19.215 2°54.052 71.4 11.4 66 12.1
2007-09-25 07:31:21 51°19.221 2°54.076 69.8 11.5 68 12
2007-09-25 07:31:26 51°19.228 2°54.098 68.2 11 64 12
2007-09-25 07:31:31 51°19.232 2°54.12 70 10.9 71 12
2007-09-25 07:31:36 51°19.239 2°54.144 71.2 11.4 66 12
2007-09-25 07:31:41 51°19.245 2°54.167 68.9 11.3 69 12
2007-09-25 07:31:46 51°19.25 2°54.19 71.1 11.2 71 12.1
2007-09-25 07:31:50 51°19.255 2°54.207 69.9 10.8 65 12.1
2007-09-25 07:31:56 51°19.261 2°54.235 69.5 11.1 72 12
2007-09-25 07:32:01 51°19.268 2°54.256 69.5 10.9 62 12
2007-09-25 07:32:06 51°19.273 2°54.279 68.7 10.8 71 12.1
2007-09-25 07:32:11 51°19.279 2°54.3 68.9 10.8 66 12.1
2007-09-25 07:32:16 51°19.284 2°54.325 70.7 11.4 71 12
2007-09-25 07:32:21 51°19.291 2°54.347 69.4 11.2 66 12
2007-09-25 07:32:26 51°19.295 2°54.371 71.7 11.3 74 12
2007-09-25 07:32:31 51°19.302 2°54.392 69.5 10.9 61 12
2007-09-25 07:32:36 51°19.307 2°54.416 70.7 11.4 71 12
2007-09-25 07:32:41 51°19.314 2°54.438 69 11.2 62 12
2007-09-25 07:32:46 51°19.32 2°54.46 66.5 10.6 67 12.1
2007-09-25 07:32:51 51°19.325 2°54.482 70.2 10.7 67 12
2007-09-25 07:32:56 51°19.331 2°54.505 69.6 11.4 69 12
2007-09-25 07:33:01 51°19.337 2°54.528 70 11.2 66 12.1
2007-09-25 07:33:06 51°19.342 2°54.551 69.9 11 70 12.1
2007-09-25 07:33:11 51°19.347 2°54.574 71 11.2 70 12
2007-09-25 07:33:16 51°19.354 2°54.597 69.7 11.2 68 12
2007-09-25 07:33:21 51°19.359 2°54.62 70 11.2 69 12.1
2007-09-25 07:33:26 51°19.365 2°54.643 70.8 11.3 68 12.1
2007-09-25 07:33:31 51°19.371 2°54.666 68.9 11.3 69 12
2007-09-25 07:33:36 51°19.376 2°54.69 71.3 11.4 69 12.1
2007-09-25 07:33:41 51°19.384 2°54.711 68.6 11 63 12.1
2007-09-25 07:33:46 51°19.387 2°54.736 70.4 11.2 74 12.1
2007-09-25 07:33:50 51°19.394 2°54.753 71.1 11.5 63 12
2007-09-25 07:33:56 51°19.4 2°54.781 69.7 11 68 12.1
2007-09-25 07:34:01 51°19.406 2°54.804 70 11.2 70 12.1
2007-09-25 07:34:06 51°19.412 2°54.827 70.1 11.3 67 12.1
2007-09-25 07:34:11 51°19.417 2°54.849 67.6 10.7 68 12.1
2007-09-25 07:34:16 51°19.423 2°54.872 71.3 10.9 70 12
2007-09-25 07:34:21 51°19.429 2°54.895 71.9 11.5 66 12
2007-09-25 07:34:26 51°19.436 2°54.917 66.4 11 63 12.1
2007-09-25 07:34:31 51°19.441 2°54.939 68.6 10.8 70 12
2007-09-25 07:34:36 51°19.447 2°54.962 69.7 11.1 68 12
2007-09-25 07:34:41 51°19.452 2°54.985 70 11 69 12.1
2007-09-25 07:34:46 51°19.458 2°55.007 71.1 10.8 68 12.1
2007-09-25 07:34:50 51°19.461 2°55.026 71.5 11 72 12.1
2007-09-25 07:34:56 51°19.468 2°55.053 71.8 11.1 70 12.1
2007-09-25 07:35:01 51°19.473 2°55.077 72.4 11.1 70 12.1
2007-09-25 07:35:06 51°19.479 2°55.099 69.5 10.9 66 12
2007-09-25 07:35:11 51°19.483 2°55.123 72.8 11.3 75 12
2007-09-25 07:35:16 51°19.489 2°55.147 72.5 11.5 67 11.9
2007-09-25 07:35:21 51°19.494 2°55.17 70.8 11.1 73 12
2007-09-25 07:35:26 51°19.499 2°55.193 72.8 11.2 69 12
2007-09-25 07:35:31 51°19.504 2°55.217 72.1 11.3 71 12.1
2007-09-25 07:35:36 51°19.511 2°55.239 69.8 10.9 66 12.1
2007-09-25 07:35:41 51°19.516 2°55.262 70 11.2 69 12.1
2007-09-25 07:35:46 51°19.522 2°55.285 69.3 11.3 65 12
2007-09-25 07:35:51 51°19.528 2°55.308 70.1 11 66 12
2007-09-25 07:35:56 51°19.533 2°55.33 68.8 10.8 70 12.1
2007-09-25 07:36:01 51°19.539 2°55.353 70.8 11 66 12.1
2007-09-25 07:36:06 51°19.544 2°55.376 69.6 11 68 12
2007-09-25 07:36:11 51°19.55 2°55.399 71.8 11.4 71 12
2007-09-25 07:36:16 51°19.556 2°55.421 68.7 10.9 66 12.1
2007-09-25 07:36:21 51°19.56 2°55.444 69.7 10.8 73 12.1
2007-09-25 07:36:26 51°19.566 2°55.467 72.3 11.3 68 11.9
2007-09-25 07:36:31 51°19.573 2°55.49 68.9 11.3 65 11.9
2007-09-25 07:36:36 51°19.577 2°55.513 69.7 11 72 12
2007-09-25 07:36:41 51°19.583 2°55.536 71 10.8 68 12
2007-09-25 07:36:46 51°19.587 2°55.56 72.2 11.3 72 12
2007-09-25 07:36:50 51°19.593 2°55.578 71.1 11.4 66 12
2007-09-25 07:36:56 51°19.598 2°55.606 69.6 11.2 74 11.9
2007-09-25 07:37:01 51°19.605 2°55.629 72.7 11.1 66 11.9
2007-09-25 07:37:06 51°19.61 2°55.651 69.7 10.8 68 12
2007-09-25 07:37:11 51°19.615 2°55.675 71.1 11.4 72 11.9
2007-09-25 07:37:16 51°19.623 2°55.697 69.3 11.3 61 11.9
2007-09-25 07:37:21 51°19.627 2°55.72 67.7 10.6 72 12
2007-09-25 07:37:26 51°19.632 2°55.743 73.7 11.1 71 11.9
2007-09-25 07:37:31 51°19.639 2°55.764 68.3 11.1 62 11.7
2007-09-25 07:37:36 51°19.645 2°55.787 66.9 11 67 11.8
2007-09-25 07:37:41 51°19.652 2°55.808 66.9 10.9 63 11.8
2007-09-25 07:37:46 51°19.657 2°55.831 67.5 10.8 70 11.9
2007-09-25 07:37:51 51°19.663 2°55.854 69.5 11.1 67 11.8
2007-09-25 07:37:56 51°19.669 2°55.877 70.8 11.4 69 11.8
2007-09-25 07:38:01 51°19.675 2°55.899 68.1 11 65 11.8
2007-09-25 07:38:06 51°19.68 2°55.922 69.6 10.9 71 11.8
2007-09-25 07:38:11 51°19.686 2°55.944 70.2 11.1 66 11.8
2007-09-25 07:38:16 51°19.691 2°55.968 70.4 11.3 69 11.8
2007-09-25 07:38:21 51°19.698 2°55.991 68.8 11.1 67 11.7
2007-09-25 07:38:26 51°19.702 2°56.014 69.8 11 72 11.8
2007-09-25 07:38:31 51°19.708 2°56.037 72.2 11.2 69 11.8
2007-09-25 07:38:36 51°19.713 2°56.062 72.1 11.7 72 11.8
2007-09-25 07:38:41 51°19.719 2°56.084 68 11.1 64 11.7
2007-09-25 07:38:46 51°19.723 2°56.108 71.8 11.1 77 11.6
2007-09-25 07:38:51 51°19.729 2°56.131 73.5 11.3 66 11.6
2007-09-25 07:38:56 51°19.733 2°56.156 71.3 11.5 75 11.7
2007-09-25 07:39:01 51°19.74 2°56.177 71.4 11.1 65 11.7
2007-09-25 07:39:06 51°19.745 2°56.2 69.3 10.6 71 11.8
2007-09-25 07:39:11 51°19.75 2°56.223 71.8 11.3 70 11.7
2007-09-25 07:39:16 51°19.756 2°56.248 69.9 11.9 69 11.7
2007-09-25 07:39:21 51°19.763 2°56.27 68 11 65 11.8
2007-09-25 07:39:26 51°19.766 2°56.293 70.7 10.6 76 11.7
2007-09-25 07:39:31 51°19.771 2°56.317 73.7 11.4 70 11.5
2007-09-25 07:39:36 51°19.777 2°56.341 71.7 11.7 69 11.5
2007-09-25 07:39:41 51°19.782 2°56.363 69.1 10.8 69 11.7
2007-09-25 07:39:46 51°19.786 2°56.388 73.1 11.2 77 11.6
2007-09-25 07:39:51 51°19.793 2°56.41 71.7 11.3 64 11.5
2007-09-25 07:39:56 51°19.797 2°56.433 68.6 11 72 11.5
2007-09-25 07:40:01 51°19.803 2°56.456 72 11.2 69 11.6
2007-09-25 07:40:06 51°19.809 2°56.479 70.3 11.1 68 11.6
2007-09-25 07:40:11 51°19.814 2°56.502 70.6 11 70 11.7
2007-09-25 07:40:16 51°19.82 2°56.525 69.2 11.1 70 11.7
2007-09-25 07:40:21 51°19.825 2°56.549 71.1 11.6 70 11.4
2007-09-25 07:40:26 51°19.832 2°56.571 69 11.3 63 11.5
2007-09-25 07:40:31 51°19.836 2°56.594 68.2 10.9 72 11.5
2007-09-25 07:40:36 51°19.844 2°56.616 70.6 11 64 11.5
2007-09-25 07:40:41 51°19.848 2°56.641 67.6 11.6 74 11.4
2007-09-25 07:40:46 51°19.855 2°56.662 70.4 11.2 65 11.6
2007-09-25 07:40:51 51°19.86 2°56.685 65.4 10.7 67 11.5
2007-09-25 07:40:56 51°19.865 2°56.708 71.4 11.2 74 11.5
2007-09-25 07:41:01 51°19.871 2°56.73 70.4 10.9 65 11.6
2007-09-25 07:41:06 51°19.875 2°56.754 71.3 11.1 76 11.7
2007-09-25 07:41:11 51°19.882 2°56.776 70.2 11.1 63 11.6
2007-09-25 07:41:16 51°19.887 2°56.799 68.5 10.9 71 11.6
2007-09-25 07:41:21 51°19.893 2°56.821 69.4 11 67 11.6
2007-09-25 07:41:26 51°19.898 2°56.845 70.5 11.5 72 11.5
2007-09-25 07:41:31 51°19.905 2°56.867 69.6 11.3 63 11.6
2007-09-25 07:41:36 51°19.909 2°56.891 68.5 11 73 11.5
2007-09-25 07:41:41 51°19.917 2°56.913 70.5 11.2 63 11.5
2007-09-25 07:41:46 51°19.921 2°56.937 68.1 11.1 73 11.5
2007-09-25 07:41:51 51°19.927 2°56.959 70.4 11 68 11.6
2007-09-25 07:41:56 51°19.931 2°56.984 72.3 11.5 72 11.6
2007-09-25 07:42:01 51°19.938 2°57.006 70.8 11.3 66 11.5
2007-09-25 07:42:06 51°19.943 2°57.029 69.9 11 70 11.6
2007-09-25 07:42:11 51°19.949 2°57.051 69.4 10.9 66 11.6
2007-09-25 07:42:16 51°19.955 2°57.074 68.7 11.3 68 11.6
2007-09-25 07:42:21 51°19.961 2°57.098 69.6 11.7 67 11.4
2007-09-25 07:42:26 51°19.968 2°57.121 68.3 11.5 65 11.5
2007-09-25 07:42:31 51°19.973 2°57.143 67.9 10.8 69 11.4
2007-09-25 07:42:36 51°19.978 2°57.166 70 10.9 70 11.5
2007-09-25 07:42:41 51°19.984 2°57.19 71.6 11.7 68 11.4
2007-09-25 07:42:46 51°19.99 2°57.214 69.5 11.6 68 11.4
2007-09-25 07:42:51 51°19.995 2°57.236 70.4 10.8 71 11.7
2007-09-25 07:42:56 51°19.999 2°57.259 72.9 10.9 73 11.7
2007-09-25 07:43:01 51°20.004 2°57.283 73.2 11.3 69 11.6
2007-09-25 07:43:06 51°20.01 2°57.307 71.7 11.4 71 11.6
2007-09-25 07:43:11 51°20.015 2°57.33 71.8 11.1 69 11.6
2007-09-25 07:43:16 51°20.021 2°57.353 70.8 11.2 71 11.6
2007-09-25 07:43:21 51°20.027 2°57.375 70.3 11.2 64 11.6
2007-09-25 07:43:26 51°20.033 2°57.399 67.9 11.2 68 11.5
2007-09-25 07:43:30 51°20.038 2°57.417 69.2 11.4 62 11.5
2007-09-25 07:43:36 51°20.044 2°57.446 67.5 11.6 72 11.4
2007-09-25 07:43:41 51°20.052 2°57.467 69.2 11.2 60 11.5
2007-09-25 07:43:46 51°20.056 2°57.491 67.2 10.9 71 11.4
2007-09-25 07:43:51 51°20.063 2°57.513 71.6 11.2 64 11.4
2007-09-25 07:43:56 51°20.068 2°57.537 69.6 11.4 70 11.4
2007-09-25 07:44:01 51°20.076 2°57.558 68.1 10.9 63 11.5
2007-09-25 07:44:06 51°20.079 2°57.582 69.1 10.9 74 11.4
2007-09-25 07:44:11 51°20.086 2°57.604 71.9 11.3 64 11.6
2007-09-25 07:44:16 51°20.091 2°57.628 70.3 11.4 71 11.6
2007-09-25 07:44:21 51°20.098 2°57.65 69.7 11.3 63 11.5
2007-09-25 07:44:26 51°20.103 2°57.674 69.5 11.3 71 11.4
2007-09-25 07:44:31 51°20.109 2°57.697 69.9 11 69 11.4
2007-09-25 07:44:36 51°20.113 2°57.72 71.8 11.2 71 11.4
2007-09-25 07:44:41 51°20.119 2°57.745 72.2 11.8 71 11.3
2007-09-25 07:44:46 51°20.126 2°57.768 70.4 11.6 66 11.3
2007-09-25 07:44:51 51°20.13 2°57.791 69.4 10.8 73 11.4
2007-09-25 07:44:56 51°20.136 2°57.813 71.5 10.9 68 11.4
2007-09-25 07:45:01 51°20.141 2°57.838 71.5 11.7 72 11.2
2007-09-25 07:45:06 51°20.148 2°57.861 70.8 11.7 67 11.3
2007-09-25 07:45:11 51°20.153 2°57.884 69.4 11 71 11.6
2007-09-25 07:45:16 51°20.158 2°57.906 71.1 10.9 70 11.6
2007-09-25 07:45:21 51°20.162 2°57.932 72.5 11.8 74 11.4
2007-09-25 07:45:26 51°20.17 2°57.954 71.3 11.5 64 11.3
2007-09-25 07:45:31 51°20.174 2°57.977 69.2 10.7 73 11.4
2007-09-25 07:45:36 51°20.18 2°58 74.7 11.2 69 11.4
2007-09-25 07:45:41 51°20.185 2°58.025 71.5 11.5 69 11.2
2007-09-25 07:45:46 51°20.192 2°58.046 69 10.9 65 11.4
2007-09-25 07:45:50 51°20.194 2°58.066 73.3 11.1 78 11.3
2007-09-25 07:45:56 51°20.202 2°58.093 73.1 11.2 65 11.5
2007-09-25 07:46:01 51°20.205 2°58.118 71.9 11.3 76 11.3
2007-09-25 07:46:06 51°20.213 2°58.138 71.7 11.1 60 11.3
2007-09-25 07:46:11 51°20.218 2°58.161 67.8 10.9 70 11.3
2007-09-25 07:46:16 51°20.224 2°58.184 69.8 11.1 68 11.3
2007-09-25 07:46:21 51°20.229 2°58.207 70.4 11 69 11.4
2007-09-25 07:46:26 51°20.233 2°58.23 72.6 11.1 73 11.4
2007-09-25 07:46:31 51°20.24 2°58.253 72.1 11.1 67 11.4
2007-09-25 07:46:36 51°20.244 2°58.276 70.8 11.1 72 11.3
2007-09-25 07:46:41 51°20.251 2°58.299 71.1 11.3 67 11.2
2007-09-25 07:46:46 51°20.256 2°58.322 70.4 11.1 70 11.3
2007-09-25 07:46:51 51°20.262 2°58.345 69.5 10.9 68 11.2
2007-09-25 07:46:56 51°20.268 2°58.368 71.8 11.2 66 11.3
2007-09-25 07:47:01 51°20.273 2°58.392 69.3 11.6 71 11
2007-09-25 07:47:06 51°20.28 2°58.413 68.8 11 65 11.2
2007-09-25 07:47:11 51°20.283 2°58.437 71.3 10.9 79 11.2
2007-09-25 07:47:17 51°20.291 2°58.464 74.6 11.5 61 11
2007-09-25 07:47:21 51°20.295 2°58.482 67.6 11.2 68 10.9
2007-09-25 07:47:26 51°20.301 2°58.505 69.4 11 68 11
2007-09-25 07:47:31 51°20.307 2°58.527 69.6 10.9 68 11.2
2007-09-25 07:47:36 51°20.313 2°58.55 70 11.1 68 11.3
2007-09-25 07:47:41 51°20.319 2°58.574 71.2 11.5 69 11.2
2007-09-25 07:47:46 51°20.326 2°58.597 68.4 11.4 63 11.2
2007-09-25 07:47:50 51°20.329 2°58.616 69.8 11.2 74 11.2
2007-09-25 07:47:56 51°20.336 2°58.643 71.3 11 68 11.2
2007-09-25 07:48:01 51°20.34 2°58.668 72.6 11.4 73 11.1
2007-09-25 07:48:06 51°20.348 2°58.689 70.4 11.5 62 11.1
2007-09-25 07:48:11 51°20.352 2°58.714 70.1 11.6 73 11.1
2007-09-25 07:48:16 51°20.359 2°58.737 69.9 11.3 66 11.2
2007-09-25 07:48:21 51°20.363 2°58.76 70 10.8 73 11.3
2007-09-25 07:48:26 51°20.368 2°58.783 73.3 10.9 71 11.2
2007-09-25 07:48:31 51°20.374 2°58.807 71.8 11.5 69 11
2007-09-25 07:48:36 51°20.38 2°58.83 71.1 11.4 69 11.1
2007-09-25 07:48:41 51°20.385 2°58.852 69.4 10.7 70 11.2
2007-09-25 07:48:46 51°20.389 2°58.875 73.1 10.9 74 11.1
2007-09-25 07:48:51 51°20.395 2°58.9 73.7 11.6 71 11.1
2007-09-25 07:48:56 51°20.401 2°58.923 70.4 11.3 67 11.1
2007-09-25 07:49:01 51°20.406 2°58.946 70.4 11 72 11.1
2007-09-25 07:49:06 51°20.412 2°58.968 71.8 11 68 11.1
2007-09-25 07:49:11 51°20.416 2°58.994 72.7 11.5 74 11
2007-09-25 07:49:16 51°20.424 2°59.016 71.1 11.4 60 11.1
2007-09-25 07:49:21 51°20.428 2°59.038 66.2 10.7 73 11.1
2007-09-25 07:49:26 51°20.433 2°59.061 72.1 10.9 72 11.1
2007-09-25 07:49:31 51°20.439 2°59.084 72.1 11.2 69 11
2007-09-25 07:49:36 51°20.443 2°59.108 71.8 11.1 71 11.1